Time;durP1;ratioP1;P1;durP2;ratioP2;P2;SDS_P1;SDS_P2;PMS_P1;PMS_P2;Temp;Humidity;BMP_temperature;BMP_pressure;BME280_temperature;BME280_humidity;BME280_pressure;Samples;Min_cycle;Max_cycle;Signal;HPM_P1;HPM_P2
2023/12/21 00:00:32;;;;;;;3.20;1.98;;;;;;;3.35;100.00;96811.44;4983070;28;20042;-69
2023/12/21 00:02:57;;;;;;;5.03;2.50;;;;;;;3.38;100.00;96810.81;4996221;28;20038;-68
2023/12/21 00:05:22;;;;;;;6.03;2.20;;;;;;;3.41;100.00;96804.78;4990730;28;20953;-68
2023/12/21 00:07:48;;;;;;;7.00;1.95;;;;;;;3.39;100.00;96815.13;4983531;28;20115;-68
2023/12/21 00:10:13;;;;;;;2.33;1.65;;;;;;;3.36;100.00;96805.72;4983765;28;20048;-69
2023/12/21 00:12:39;;;;;;;4.43;2.42;;;;;;;3.39;100.00;96798.88;4994043;28;20568;-70
2023/12/21 00:15:05;;;;;;;3.70;1.80;;;;;;;3.32;100.00;96790.44;4980791;28;20111;-73
2023/12/21 00:17:30;;;;;;;4.40;2.00;;;;;;;3.33;100.00;96789.28;4997466;28;20046;-71
2023/12/21 00:19:56;;;;;;;2.80;1.65;;;;;;;3.36;100.00;96788.66;5001990;28;20137;-69
2023/12/21 00:22:22;;;;;;;2.65;1.35;;;;;;;3.49;100.00;96789.63;4997988;28;20145;-70
2023/12/21 00:24:47;;;;;;;3.33;1.55;;;;;;;3.49;100.00;96782.28;5009893;28;20057;-70
2023/12/21 00:27:13;;;;;;;4.85;1.55;;;;;;;3.43;100.00;96770.84;5004790;28;20045;-72
2023/12/21 00:29:38;;;;;;;3.20;1.40;;;;;;;3.48;100.00;96769.09;5017503;28;20042;-70
2023/12/21 00:32:04;;;;;;;3.72;1.77;;;;;;;3.41;100.00;96767.66;5001741;28;20034;-78
2023/12/21 00:34:29;;;;;;;3.28;1.55;;;;;;;3.44;100.00;96768.94;5003387;28;20070;-72
2023/12/21 00:36:55;;;;;;;2.60;1.60;;;;;;;3.53;100.00;96755.38;5002549;28;20456;-70
2023/12/21 00:39:20;;;;;;;2.40;1.50;;;;;;;3.51;100.00;96754.91;4997724;28;20104;-70
2023/12/21 00:41:45;;;;;;;3.28;1.60;;;;;;;3.51;100.00;96760.31;5003228;28;20124;-72
2023/12/21 00:44:11;;;;;;;1.88;1.58;;;;;;;3.54;100.00;96749.66;4998122;28;20495;-72
2023/12/21 00:46:36;;;;;;;2.85;1.50;;;;;;;3.58;100.00;96741.69;5001615;28;20440;-70
2023/12/21 00:49:02;;;;;;;3.38;1.42;;;;;;;3.60;100.00;96742.16;4991611;28;20069;-72
2023/12/21 00:51:27;;;;;;;4.38;1.50;;;;;;;3.58;100.00;96749.81;4998262;28;20497;-71
2023/12/21 00:53:53;;;;;;;3.67;1.40;;;;;;;3.63;100.00;96746.94;4999295;28;20582;-71
2023/12/21 00:56:18;;;;;;;3.88;1.60;;;;;;;3.72;100.00;96755.84;4991049;28;20205;-72
2023/12/21 00:58:44;;;;;;;3.53;1.63;;;;;;;3.63;100.00;96745.00;5003882;28;20136;-73
2023/12/21 01:01:09;;;;;;;2.30;1.27;;;;;;;3.63;100.00;96757.78;4990389;28;20049;-71
2023/12/21 01:03:35;;;;;;;2.28;1.38;;;;;;;3.66;100.00;96754.44;4987452;28;20081;-71
2023/12/21 01:06:00;;;;;;;2.45;1.73;;;;;;;3.63;100.00;96758.56;4990491;28;20030;-71
2023/12/21 01:08:25;;;;;;;3.30;1.77;;;;;;;3.64;100.00;96759.38;4985195;28;20042;-71
2023/12/21 01:10:51;;;;;;;4.03;1.60;;;;;;;3.64;100.00;96757.44;4989128;28;20489;-72
2023/12/21 01:13:16;;;;;;;3.65;1.65;;;;;;;3.71;100.00;96765.09;4985098;28;20040;-72
2023/12/21 01:15:41;;;;;;;4.45;1.45;;;;;;;3.80;100.00;96760.47;4989979;28;20049;-71
2023/12/21 01:18:07;;;;;;;3.42;1.63;;;;;;;3.81;100.00;96763.97;4986848;28;20421;-71
2023/12/21 01:20:32;;;;;;;2.80;1.17;;;;;;;3.76;100.00;96754.09;5000765;28;20199;-72
2023/12/21 01:22:57;;;;;;;3.10;1.63;;;;;;;3.74;100.00;96756.31;5008245;28;20133;-71
2023/12/21 01:25:23;;;;;;;4.63;2.00;;;;;;;3.70;100.00;96744.53;4996248;28;20363;-72
2023/12/21 01:27:48;;;;;;;4.28;1.30;;;;;;;3.83;100.00;96742.75;5000923;28;20455;-71
2023/12/21 01:30:13;;;;;;;4.95;1.85;;;;;;;3.72;100.00;96731.47;4990238;28;20124;-71
2023/12/21 01:32:39;;;;;;;5.35;1.60;;;;;;;3.72;100.00;96728.75;4992128;28;20045;-72
2023/12/21 01:35:05;;;;;;;3.67;1.52;;;;;;;3.72;100.00;96728.75;4996514;28;20129;-72
2023/12/21 01:37:30;;;;;;;5.53;1.50;;;;;;;3.70;100.00;96724.78;4986726;28;20112;-73
2023/12/21 01:39:56;;;;;;;2.42;1.40;;;;;;;3.70;100.00;96722.88;4980675;28;20052;-73
2023/12/21 01:42:21;;;;;;;2.58;1.30;;;;;;;3.66;100.00;96721.13;4990827;28;20463;-71
2023/12/21 01:44:46;;;;;;;2.47;1.35;;;;;;;3.76;100.00;96713.47;4993410;28;20485;-72
2023/12/21 01:47:12;;;;;;;3.45;1.45;;;;;;;3.83;100.00;96697.53;4996859;28;20125;-71
2023/12/21 01:49:40;;;;;;;2.60;1.35;;;;;;;3.81;100.00;96685.41;4992704;28;20056;-71
2023/12/21 01:52:07;;;;;;;4.15;1.38;;;;;;;3.91;100.00;96695.91;4992882;28;20066;-73
2023/12/21 01:54:32;;;;;;;5.20;1.85;;;;;;;3.77;100.00;96687.94;4995613;28;20053;-72
2023/12/21 01:56:58;;;;;;;2.95;1.45;;;;;;;3.77;100.00;96685.25;4990598;28;20050;-72
2023/12/21 01:59:24;;;;;;;4.93;1.70;;;;;;;3.78;100.00;96681.44;4995083;28;20046;-73
2023/12/21 02:01:49;;;;;;;4.60;1.40;;;;;;;3.73;100.00;96675.41;5001010;28;20136;-72
2023/12/21 02:04:15;;;;;;;3.22;1.42;;;;;;;3.71;100.00;96674.91;5007526;28;20142;-72
2023/12/21 02:06:40;;;;;;;3.00;1.60;;;;;;;3.85;100.00;96664.66;4997490;28;20493;-72
2023/12/21 02:09:07;;;;;;;2.33;1.40;;;;;;;3.82;100.00;96663.41;4981780;28;20045;-72
2023/12/21 02:11:32;;;;;;;2.40;1.25;;;;;;;3.81;100.00;96678.06;5000310;28;20103;-72
2023/12/21 02:13:58;;;;;;;4.32;1.67;;;;;;;3.82;100.00;96644.44;4984033;28;20050;-74
2023/12/21 02:16:33;;;;;;;2.20;1.38;;;;;;;3.77;100.00;96652.75;4983708;28;20767;-71
2023/12/21 02:18:58;;;;;;;3.22;1.50;;;;;;;3.81;100.00;96661.00;4990745;28;20548;-72
2023/12/21 02:21:25;;;;;;;2.42;1.40;;;;;;;3.77;100.00;96662.78;4983076;28;20097;-71
2023/12/21 02:23:53;;;;;;;4.30;1.63;;;;;;;3.75;100.00;96654.19;4988448;28;20036;-71
2023/12/21 02:26:18;;;;;;;1.98;1.70;;;;;;;3.87;100.00;96645.38;4989914;28;20128;-73
2023/12/21 02:28:44;;;;;;;2.63;1.38;;;;;;;3.76;100.00;96651.16;4991107;28;20533;-72
2023/12/21 02:31:09;;;;;;;1.80;1.30;;;;;;;3.75;100.00;96637.94;4987946;28;20132;-72
2023/12/21 02:33:35;;;;;;;2.58;1.50;;;;;;;3.75;100.00;96633.31;4991572;28;20041;-71
2023/12/21 02:36:00;;;;;;;4.57;1.60;;;;;;;3.72;100.00;96630.44;4988001;28;20377;-74
2023/12/21 02:38:26;;;;;;;1.90;1.70;;;;;;;3.77;100.00;96639.19;4983272;28;20493;-72
2023/12/21 02:40:51;;;;;;;1.92;1.40;;;;;;;3.71;100.00;96628.84;4990836;28;20042;-72
2023/12/21 02:43:16;;;;;;;5.90;1.75;;;;;;;3.70;100.00;96613.72;4980363;28;20037;-73
2023/12/21 02:45:42;;;;;;;3.35;1.60;;;;;;;3.61;100.00;96613.75;4991204;28;20035;-72
2023/12/21 02:48:07;;;;;;;2.75;1.77;;;;;;;3.62;100.00;96616.13;4985243;28;20401;-71
2023/12/21 02:50:32;;;;;;;3.42;1.70;;;;;;;3.68;100.00;96634.94;4999842;28;20050;-72
2023/12/21 02:52:58;;;;;;;2.38;1.83;;;;;;;3.64;100.00;96635.56;4987949;28;20035;-71
2023/12/21 02:55:23;;;;;;;2.65;1.27;;;;;;;3.68;100.00;96637.63;4961669;28;20084;-72
2023/12/21 02:57:48;;;;;;;2.35;1.48;;;;;;;3.70;100.00;96619.94;4990865;28;20447;-72
2023/12/21 03:00:14;;;;;;;4.22;1.58;;;;;;;3.63;100.00;96608.81;4994238;28;20049;-72
2023/12/21 03:02:40;;;;;;;3.20;1.80;;;;;;;3.52;100.00;96611.06;4998153;28;20037;-72
2023/12/21 03:05:06;;;;;;;2.42;1.60;;;;;;;3.59;100.00;96595.13;4983947;28;20089;-73
2023/12/21 03:07:31;;;;;;;6.82;1.60;;;;;;;3.61;100.00;96608.34;4982609;28;20081;-74
2023/12/21 03:09:56;;;;;;;5.38;1.85;;;;;;;3.56;100.00;96598.47;4979541;28;20041;-73
2023/12/21 03:12:22;;;;;;;3.13;1.40;;;;;;;3.61;100.00;96608.34;4983030;28;20813;-71
2023/12/21 03:14:48;;;;;;;2.67;1.50;;;;;;;3.56;100.00;96611.22;4980706;28;20501;-71
2023/12/21 03:17:13;;;;;;;3.47;1.60;;;;;;;3.62;100.00;96607.22;4976696;28;20038;-72
2023/12/21 03:19:39;;;;;;;3.72;1.50;;;;;;;3.66;100.00;96596.53;4979975;28;20048;-71
2023/12/21 03:22:04;;;;;;;2.35;1.50;;;;;;;3.59;100.00;96586.97;4978299;28;20504;-73
2023/12/21 03:24:29;;;;;;;2.47;1.60;;;;;;;3.69;100.00;96571.50;4993798;28;20047;-73
2023/12/21 03:26:55;;;;;;;2.83;1.30;;;;;;;3.65;100.00;96549.69;4981254;28;20049;-72
2023/12/21 03:29:20;;;;;;;2.25;1.70;;;;;;;3.69;100.00;96536.28;4980343;28;20424;-74
2023/12/21 03:31:46;;;;;;;1.42;1.23;;;;;;;3.79;100.00;96530.50;4987581;28;20374;-74
2023/12/21 03:34:11;;;;;;;3.47;1.50;;;;;;;3.68;100.00;96524.66;4974815;28;20109;-73
2023/12/21 03:36:36;;;;;;;2.33;1.50;;;;;;;3.66;100.00;96520.72;4979619;28;20397;-73
2023/12/21 03:39:02;;;;;;;2.17;1.30;;;;;;;3.66;100.00;96513.38;4977525;28;20056;-75
2023/12/21 03:41:27;;;;;;;2.08;1.48;;;;;;;3.78;100.00;96483.66;4975574;28;20046;-72
2023/12/21 03:43:53;;;;;;;1.42;1.20;;;;;;;3.77;100.00;96473.94;4979351;28;20510;-71
2023/12/21 03:46:18;;;;;;;1.75;1.40;;;;;;;3.83;100.00;96486.19;4979798;28;20053;-72
2023/12/21 03:48:45;;;;;;;2.20;1.60;;;;;;;3.80;100.00;96496.88;4984779;28;20064;-72
2023/12/21 03:51:10;;;;;;;2.88;1.70;;;;;;;3.74;100.00;96498.19;5002427;28;20042;-73
2023/12/21 03:53:36;;;;;;;2.00;1.55;;;;;;;3.74;100.00;96490.84;4959936;28;20039;-72
2023/12/21 03:56:01;;;;;;;2.80;1.40;;;;;;;3.79;100.00;96479.81;4986407;28;20105;-72
2023/12/21 03:58:26;;;;;;;2.63;2.33;;;;;;;3.84;100.00;96484.28;4980585;28;20500;-73
2023/12/21 04:00:52;;;;;;;4.57;1.52;;;;;;;3.75;100.00;96476.19;4991665;28;20077;-73
2023/12/21 04:03:17;;;;;;;1.38;1.20;;;;;;;3.85;100.00;96476.94;4996443;28;20134;-73
2023/12/21 04:05:43;;;;;;;1.98;1.30;;;;;;;3.85;100.00;96482.34;4994264;28;20046;-72
2023/12/21 04:08:08;;;;;;;2.20;1.50;;;;;;;3.91;100.00;96475.63;4980102;28;20498;-72
2023/12/21 04:10:34;;;;;;;1.67;1.17;;;;;;;3.97;100.00;96488.63;4982540;28;20073;-71
2023/12/21 04:12:59;;;;;;;3.75;1.20;;;;;;;4.07;100.00;96489.38;5001002;28;20042;-71
2023/12/21 04:15:25;;;;;;;2.47;1.48;;;;;;;3.94;100.00;96470.34;4991572;28;20046;-71
2023/12/21 04:17:51;;;;;;;2.58;1.33;;;;;;;3.98;100.00;96463.13;4998957;28;20120;-72
2023/12/21 04:20:16;;;;;;;3.28;1.42;;;;;;;3.89;100.00;96458.88;4989498;28;20067;-71
2023/12/21 04:22:41;;;;;;;1.70;1.40;;;;;;;3.88;100.00;96457.31;5001338;28;20753;-71
2023/12/21 04:25:08;;;;;;;2.45;1.40;;;;;;;3.94;100.00;96454.09;4996924;28;20038;-71
2023/12/21 04:27:33;;;;;;;4.38;1.50;;;;;;;3.94;100.00;96454.09;5017120;28;20080;-73
2023/12/21 04:29:58;;;;;;;2.08;1.50;;;;;;;3.97;100.00;96460.75;5000446;28;20046;-71
2023/12/21 04:32:24;;;;;;;1.88;1.38;;;;;;;4.01;100.00;96462.47;4997893;28;20046;-71
2023/12/21 04:34:49;;;;;;;1.80;1.15;;;;;;;4.05;100.00;96440.91;4993776;28;20045;-71
2023/12/21 04:37:15;;;;;;;3.38;1.45;;;;;;;3.99;100.00;96442.25;4996156;28;20259;-71
2023/12/21 04:39:40;;;;;;;1.77;1.27;;;;;;;3.98;100.00;96443.34;5017707;28;20609;-72
2023/12/21 04:42:06;;;;;;;2.20;1.33;;;;;;;4.02;100.00;96447.00;4996134;28;20048;-72
2023/12/21 04:44:31;;;;;;;1.30;1.13;;;;;;;4.06;100.00;96439.00;5003131;28;20548;-72
2023/12/21 04:46:56;;;;;;;1.65;1.30;;;;;;;3.99;100.00;96434.91;4999957;28;20046;-71
2023/12/21 04:49:24;;;;;;;1.63;1.13;;;;;;;3.99;100.00;96434.91;4994861;28;20112;-73
2023/12/21 04:51:50;;;;;;;3.25;1.27;;;;;;;4.10;100.00;96437.22;5002967;28;20046;-72
2023/12/21 04:54:15;;;;;;;2.20;1.40;;;;;;;4.09;100.00;96430.19;4998204;28;20084;-71
2023/12/21 04:56:41;;;;;;;1.20;1.10;;;;;;;4.12;100.00;96429.56;5001613;28;20046;-72
2023/12/21 04:59:07;;;;;;;3.03;1.70;;;;;;;4.11;100.00;96430.69;4996077;28;20033;-70
2023/12/21 05:01:33;;;;;;;2.85;1.30;;;;;;;4.13;100.00;96431.94;5001128;28;20057;-71
2023/12/21 05:03:59;;;;;;;3.05;1.20;;;;;;;4.17;100.00;96429.34;4994061;28;20038;-72
2023/12/21 05:06:25;;;;;;;2.55;1.13;;;;;;;4.12;100.00;96432.25;4989623;28;20046;-72
2023/12/21 05:08:51;;;;;;;2.05;1.20;;;;;;;4.20;100.00;96428.69;4991832;28;20050;-72
2023/12/21 05:11:17;;;;;;;2.03;1.35;;;;;;;4.17;100.00;96424.72;4990071;28;20034;-71
2023/12/21 05:13:43;;;;;;;1.48;1.20;;;;;;;4.24;100.00;96420.69;5009206;28;20545;-73
2023/12/21 05:16:08;;;;;;;1.75;1.35;;;;;;;4.31;100.00;96416.31;4997151;28;20404;-72
2023/12/21 05:18:36;;;;;;;1.40;1.13;;;;;;;4.29;100.00;96404.22;4992458;28;20046;-73
2023/12/21 05:21:01;;;;;;;3.20;1.58;;;;;;;4.31;100.00;96400.06;4999833;28;20045;-72
2023/12/21 05:23:26;;;;;;;1.67;1.05;;;;;;;4.34;100.00;96407.53;4996703;28;20084;-74
2023/12/21 05:25:52;;;;;;;2.75;1.48;;;;;;;4.37;100.00;96416.91;4984933;28;20038;-71
2023/12/21 05:28:17;;;;;;;1.15;1.05;;;;;;;4.38;100.00;96427.41;4991367;28;20053;-72
2023/12/21 05:30:43;;;;;;;2.28;1.10;;;;;;;4.40;100.00;96424.38;4989520;28;20100;-73
2023/12/21 05:33:08;;;;;;;1.77;1.20;;;;;;;4.45;100.00;96410.63;4986847;28;20038;-74
2023/12/21 05:35:34;;;;;;;1.42;1.10;;;;;;;4.51;100.00;96400.34;4999370;28;20057;-72
2023/12/21 05:38:00;;;;;;;1.80;1.30;;;;;;;4.58;100.00;96389.75;5001081;28;20046;-73
2023/12/21 05:40:25;;;;;;;2.20;1.35;;;;;;;4.57;100.00;96390.88;4984854;28;20107;-71
2023/12/21 05:42:50;;;;;;;2.60;1.20;;;;;;;4.63;100.00;96383.31;5015557;28;20077;-70
2023/12/21 05:45:16;;;;;;;1.70;1.20;;;;;;;4.65;100.00;96378.34;4989909;28;20386;-69
2023/12/21 05:47:41;;;;;;;2.40;1.42;;;;;;;4.71;100.00;96385.13;4996440;28;20520;-72
2023/12/21 05:50:08;;;;;;;2.05;1.00;;;;;;;4.70;100.00;96388.97;4994199;28;20058;-72
2023/12/21 05:52:33;;;;;;;2.17;1.27;;;;;;;4.74;100.00;96379.06;4992747;28;20268;-71
2023/12/21 05:54:58;;;;;;;1.60;1.00;;;;;;;4.78;100.00;96383.44;5013740;28;20053;-71
2023/12/21 05:57:25;;;;;;;1.25;1.15;;;;;;;4.82;100.00;96388.22;4988449;28;20062;-71
2023/12/21 05:59:50;;;;;;;2.70;1.05;;;;;;;4.84;100.00;96369.66;4992720;28;20093;-72
2023/12/21 06:02:16;;;;;;;3.25;1.52;;;;;;;4.88;100.00;96362.44;4994416;28;20145;-71
2023/12/21 06:04:41;;;;;;;3.63;1.10;;;;;;;4.87;100.00;96366.28;4985574;28;20072;-71
2023/12/21 06:07:06;;;;;;;4.20;1.15;;;;;;;4.85;100.00;96374.75;4990867;28;20048;-71
2023/12/21 06:09:32;;;;;;;1.75;1.05;;;;;;;4.92;100.00;96376.94;4989652;28;20133;-72
2023/12/21 06:11:57;;;;;;;1.35;1.23;;;;;;;4.95;100.00;96359.94;4990627;28;20404;-71
2023/12/21 06:14:23;;;;;;;8.55;1.40;;;;;;;4.96;100.00;96356.13;4978896;28;20458;-72
2023/12/21 06:16:48;;;;;;;4.97;1.10;;;;;;;5.06;100.00;96354.88;4984568;28;20042;-72
2023/12/21 06:19:15;;;;;;;2.25;1.25;;;;;;;4.99;100.00;96366.31;4994306;28;20057;-72
2023/12/21 06:21:40;;;;;;;2.15;1.83;;;;;;;5.05;100.00;96362.22;4985704;28;20049;-71
2023/12/21 06:24:09;;;;;;;1.42;0.98;;;;;;;5.01;100.00;96350.47;4991331;28;20033;-71
2023/12/21 06:26:39;;;;;;;1.50;1.20;;;;;;;5.05;100.00;96354.09;4986777;28;20036;-70
2023/12/21 06:29:04;;;;;;;;;;;;;;;5.03;100.00;96345.50;4983237;28;20038;-76
2023/12/21 06:31:30;;;;;;;1.70;1.00;;;;;;;5.12;100.00;96348.09;4987200;28;20012;-70
2023/12/21 06:33:55;;;;;;;2.25;1.00;;;;;;;5.11;100.00;96341.06;4984065;28;20324;-70
2023/12/21 06:36:20;;;;;;;3.80;1.13;;;;;;;5.15;100.00;96344.72;4995807;28;20088;-71
2023/12/21 06:38:46;;;;;;;0.93;0.80;;;;;;;5.10;100.00;96340.28;4984608;28;20129;-70
2023/12/21 06:41:13;;;;;;;1.15;1.02;;;;;;;5.10;100.00;96348.44;4983764;28;20508;-71
2023/12/21 06:43:39;;;;;;;1.23;1.05;;;;;;;5.08;100.00;96350.69;4987711;28;20046;-71
2023/12/21 06:46:04;;;;;;;1.80;1.23;;;;;;;5.11;100.00;96358.19;5002320;28;20042;-73
2023/12/21 06:48:30;;;;;;;5.43;2.05;;;;;;;5.11;100.00;96352.75;4986456;28;20081;-71
2023/12/21 06:50:55;;;;;;;3.17;1.13;;;;;;;5.19;100.00;96347.53;4989562;28;20048;-70
2023/12/21 06:53:20;;;;;;;1.25;1.00;;;;;;;5.15;100.00;96345.50;4975294;28;20043;-70
2023/12/21 06:55:46;;;;;;;2.72;0.98;;;;;;;5.19;100.00;96334.75;4986176;28;20042;-69
2023/12/21 06:58:12;;;;;;;2.13;0.90;;;;;;;5.16;100.00;96338.91;4978259;28;20064;-71
2023/12/21 07:00:37;;;;;;;1.55;0.93;;;;;;;5.31;100.00;96339.38;4985772;28;20042;-71
2023/12/21 07:03:03;;;;;;;1.40;1.05;;;;;;;5.26;100.00;96326.03;4987108;28;20496;-75
2023/12/21 07:05:28;;;;;;;2.00;1.00;;;;;;;5.29;100.00;96322.63;5008080;28;20046;-71
2023/12/21 07:07:54;;;;;;;2.95;1.30;;;;;;;5.30;100.00;96310.66;4988587;28;20046;-70
2023/12/21 07:10:21;;;;;;;1.48;1.10;;;;;;;5.31;100.00;96313.03;4975632;28;20093;-71
2023/12/21 07:12:46;;;;;;;1.65;1.08;;;;;;;5.33;100.00;96323.50;4987634;28;20046;-71
2023/12/21 07:15:12;;;;;;;3.13;1.10;;;;;;;5.34;100.00;96330.53;4983954;28;20111;-70
2023/12/21 07:17:37;;;;;;;1.15;1.00;;;;;;;5.35;100.00;96321.28;4980181;28;20445;-73
2023/12/21 07:20:03;;;;;;;1.70;1.00;;;;;;;5.34;100.00;96322.41;4983447;28;20084;-76
2023/12/21 07:22:30;;;;;;;1.20;0.98;;;;;;;5.28;100.00;96324.56;4987701;28;20046;-72
2023/12/21 07:24:55;;;;;;;5.13;1.30;;;;;;;5.31;100.00;96314.94;4994412;28;20039;-73
2023/12/21 07:27:21;;;;;;;2.15;1.10;;;;;;;5.34;100.00;96300.66;4984682;28;20046;-71
2023/12/21 07:29:46;;;;;;;2.33;1.30;;;;;;;5.35;100.00;96304.97;4979341;28;20137;-71
2023/12/21 07:32:12;;;;;;;3.08;1.48;;;;;;;5.36;100.00;96301.91;4983265;28;20042;-73
2023/12/21 07:34:37;;;;;;;1.85;1.25;;;;;;;5.33;100.00;96294.47;4996167;28;20046;-73
2023/12/21 07:37:03;;;;;;;2.45;1.23;;;;;;;5.33;100.00;96280.06;5002394;28;20137;-76
2023/12/21 07:39:28;;;;;;;1.55;1.10;;;;;;;5.44;100.00;96293.97;4984525;28;20042;-73
2023/12/21 07:41:54;;;;;;;1.98;1.20;;;;;;;5.41;100.00;96281.88;4982759;28;20137;-72
2023/12/21 07:44:19;;;;;;;3.85;1.38;;;;;;;5.38;100.00;96282.56;4987032;28;20042;-74
2023/12/21 07:46:45;;;;;;;2.97;1.40;;;;;;;5.44;100.00;96289.34;4989884;28;20042;-73
2023/12/21 07:49:10;;;;;;;2.15;1.30;;;;;;;5.41;100.00;96283.81;4981756;28;20446;-73
2023/12/21 07:51:35;;;;;;;3.60;1.60;;;;;;;5.46;100.00;96265.34;4984666;28;20042;-74
2023/12/21 07:54:01;;;;;;;4.28;2.13;;;;;;;5.41;100.00;96264.78;5008187;28;20125;-73
2023/12/21 07:56:26;;;;;;;2.80;2.10;;;;;;;5.40;100.00;96260.47;4978540;28;20046;-73
2023/12/21 07:58:51;;;;;;;4.35;1.88;;;;;;;5.41;100.00;96252.00;4989805;28;20041;-73
2023/12/21 08:01:17;;;;;;;4.40;1.92;;;;;;;5.43;100.00;96251.66;4982165;28;20056;-73
2023/12/21 08:03:43;;;;;;;4.93;1.80;;;;;;;5.46;100.00;96232.75;4988151;28;20042;-74
2023/12/21 08:06:19;;;;;;;9.52;1.52;;;;;;;5.64;100.00;96225.09;4986612;28;20053;-73
2023/12/21 08:08:45;;;;;;;2.75;1.42;;;;;;;5.62;100.00;96215.69;4982568;28;20041;-72
2023/12/21 08:11:10;;;;;;;2.35;1.20;;;;;;;5.66;100.00;96219.31;4978664;28;20385;-70
2023/12/21 08:13:36;;;;;;;2.35;1.40;;;;;;;5.63;100.00;96190.91;4982592;28;20080;-72
2023/12/21 08:16:01;;;;;;;3.35;1.20;;;;;;;5.68;100.00;96189.88;4982153;28;20442;-73
2023/12/21 08:18:27;;;;;;;1.50;1.13;;;;;;;5.70;100.00;96187.59;4960425;28;20039;-71
2023/12/21 08:20:52;;;;;;;4.70;1.45;;;;;;;5.69;100.00;96197.69;4990030;28;20298;-70
2023/12/21 08:23:17;;;;;;;3.20;1.30;;;;;;;5.69;100.00;96207.75;4977448;28;20039;-73
2023/12/21 08:25:43;;;;;;;2.47;1.20;;;;;;;5.86;100.00;96212.09;4997378;28;20544;-70
2023/12/21 08:28:09;;;;;;;8.05;1.92;;;;;;;5.71;100.00;96191.91;4979268;28;20046;-72
2023/12/21 08:30:34;;;;;;;2.40;1.42;;;;;;;5.70;100.00;96201.97;4994568;28;20574;-72
2023/12/21 08:33:00;;;;;;;3.95;1.58;;;;;;;5.71;100.00;96200.06;4992928;28;20134;-72
2023/12/21 08:35:26;;;;;;;6.15;1.80;;;;;;;5.71;100.00;96200.84;4984733;28;20054;-71
2023/12/21 08:37:51;;;;;;;4.25;1.60;;;;;;;5.79;100.00;96196.38;4996843;28;20133;-72
2023/12/21 08:40:17;;;;;;;3.03;1.48;;;;;;;5.89;100.00;96190.44;4994653;28;20492;-71
2023/12/21 08:42:42;;;;;;;9.77;2.30;;;;;;;5.88;100.00;96205.16;5000449;28;20038;-70
2023/12/21 08:45:09;;;;;;;4.30;2.58;;;;;;;5.85;100.00;96196.91;4997272;28;20042;-72
2023/12/21 08:47:40;;;;;;;2.20;1.30;;;;;;;5.92;100.00;96197.09;5000400;28;20045;-71
2023/12/21 08:50:07;;;;;;;3.35;1.48;;;;;;;5.94;100.00;96211.94;4994789;28;20125;-74
2023/12/21 08:52:33;;;;;;;13.85;6.32;;;;;;;6.00;100.00;96212.50;4993388;28;20045;-72
2023/12/21 08:54:59;;;;;;;2.60;1.60;;;;;;;6.03;100.00;96197.41;5001069;28;20084;-71
2023/12/21 08:57:25;;;;;;;2.33;1.02;;;;;;;6.06;100.00;96202.16;4995240;28;20437;-72
2023/12/21 08:59:51;;;;;;;4.70;1.10;;;;;;;6.10;100.00;96212.00;5001364;28;20074;-73
2023/12/21 09:02:17;;;;;;;1.85;1.30;;;;;;;6.11;100.00;96196.47;4995770;28;20125;-72
2023/12/21 09:04:42;;;;;;;1.63;1.00;;;;;;;6.17;100.00;96194.28;5001813;28;20136;-74
2023/12/21 09:07:07;;;;;;;3.30;0.95;;;;;;;6.16;100.00;96189.97;4995287;28;20509;-72
2023/12/21 09:09:34;;;;;;;4.63;1.25;;;;;;;6.18;100.00;96188.50;4995186;28;20396;-71
2023/12/21 09:12:00;;;;;;;1.30;0.90;;;;;;;6.23;100.00;96193.66;5002030;28;20070;-71
2023/12/21 09:14:25;;;;;;;1.73;1.10;;;;;;;6.21;100.00;96168.75;4997088;28;20077;-72
2023/12/21 09:16:54;;;;;;;1.60;0.85;;;;;;;6.24;100.00;96168.03;5002127;28;20077;-72
2023/12/21 09:19:19;;;;;;;2.92;1.10;;;;;;;6.30;100.00;96161.22;4978889;28;20049;-71
2023/12/21 09:21:45;;;;;;;3.70;1.00;;;;;;;6.32;100.00;96172.53;4999704;28;20072;-71
2023/12/21 09:24:10;;;;;;;1.95;1.00;;;;;;;6.32;100.00;96149.97;5006082;28;20045;-71
2023/12/21 09:26:36;;;;;;;3.30;0.93;;;;;;;6.36;100.00;96136.47;5006463;28;20045;-70
2023/12/21 09:29:04;;;;;;;13.40;1.33;;;;;;;6.42;100.00;96135.81;4993122;28;20499;-73
2023/12/21 09:31:31;;;;;;;2.08;1.13;;;;;;;6.40;100.00;96126.44;5001501;28;20049;-71
2023/12/21 09:33:56;;;;;;;2.47;1.33;;;;;;;6.44;100.00;96130.81;5003337;28;20056;-71
2023/12/21 09:36:21;;;;;;;1.88;1.13;;;;;;;6.45;100.00;96137.06;4996586;28;20534;-70
2023/12/21 09:38:47;;;;;;;5.20;1.30;;;;;;;6.45;100.00;96132.41;5000182;28;20042;-71
2023/12/21 09:41:13;;;;;;;1.85;1.00;;;;;;;6.42;100.00;96151.38;4993103;28;20038;-72
2023/12/21 09:43:41;;;;;;;2.50;1.08;;;;;;;6.43;100.00;96134.69;5000977;28;20044;-71
2023/12/21 09:46:08;;;;;;;1.60;1.00;;;;;;;6.46;100.00;96128.56;4996358;28;20045;-71
2023/12/21 09:48:37;;;;;;;3.72;1.30;;;;;;;6.46;100.00;96128.56;4995712;28;20042;-72
2023/12/21 09:51:04;;;;;;;1.98;0.85;;;;;;;6.48;100.00;96139.88;4999122;28;20562;-74
2023/12/21 09:53:30;;;;;;;4.28;1.00;;;;;;;6.46;100.00;96142.16;5000795;28;20042;-71
2023/12/21 09:55:59;;;;;;;1.60;1.00;;;;;;;6.46;100.00;96149.50;4998785;28;20084;-73
2023/12/21 09:58:25;;;;;;;1.83;1.15;;;;;;;6.46;100.00;96135.91;4995739;28;20038;-70
2023/12/21 10:00:50;;;;;;;6.05;0.90;;;;;;;6.42;100.00;96127.66;5000564;28;20491;-72
2023/12/21 10:03:16;;;;;;;1.73;0.98;;;;;;;6.40;100.00;96121.78;4995445;28;20042;-72
2023/12/21 10:05:41;;;;;;;1.95;1.20;;;;;;;6.43;100.00;96126.53;5001578;28;20045;-72
2023/12/21 10:08:08;;;;;;;2.90;1.05;;;;;;;6.43;100.00;96121.09;4980821;28;20047;-72
2023/12/21 10:10:34;;;;;;;2.97;1.30;;;;;;;6.46;100.00;96105.97;5001177;28;20084;-72
2023/12/21 10:12:59;;;;;;;1.58;0.90;;;;;;;6.45;100.00;96088.88;5000565;28;20034;-72
2023/12/21 10:15:24;;;;;;;1.73;1.00;;;;;;;6.47;100.00;96074.94;5010372;28;20034;-71
2023/12/21 10:17:50;;;;;;;2.05;1.10;;;;;;;6.48;100.00;96066.41;4998953;28;20082;-71
2023/12/21 10:20:16;;;;;;;1.55;0.90;;;;;;;6.49;100.00;96069.91;4994700;28;20141;-70
2023/12/21 10:22:43;;;;;;;2.13;1.17;;;;;;;6.55;100.00;96081.31;4999669;28;20110;-71
2023/12/21 10:25:12;;;;;;;2.90;1.20;;;;;;;6.55;100.00;96081.31;4995218;28;20034;-71
2023/12/21 10:27:37;;;;;;;1.73;1.02;;;;;;;6.56;100.00;96074.72;4999295;28;20049;-71
2023/12/21 10:30:04;;;;;;;1.83;0.98;;;;;;;6.55;100.00;96073.94;4998206;28;20493;-72
2023/12/21 10:32:30;;;;;;;1.83;0.82;;;;;;;6.53;100.00;96072.72;4999034;28;20141;-71
2023/12/21 10:34:58;;;;;;;2.22;1.00;;;;;;;6.55;100.00;96068.47;4999019;28;20477;-70
2023/12/21 10:37:24;;;;;;;2.67;1.08;;;;;;;6.56;100.00;96058.41;4995102;28;20714;-70
2023/12/21 10:39:49;;;;;;;1.30;1.00;;;;;;;6.59;100.00;96050.31;5013813;28;20038;-70
2023/12/21 10:42:15;;;;;;;1.35;1.00;;;;;;;6.60;100.00;96067.44;4994851;28;20404;-73
2023/12/21 10:44:59;;;;;;;1.67;1.00;;;;;;;6.63;100.00;96053.13;4999794;28;20137;-71
2023/12/21 10:47:24;;;;;;;1.83;0.90;;;;;;;6.65;100.00;96065.22;4976097;28;20049;-71
2023/12/21 10:49:50;;;;;;;1.27;1.00;;;;;;;6.64;100.00;96055.47;4999240;28;20492;-70
2023/12/21 10:52:18;;;;;;;1.70;0.90;;;;;;;6.70;100.00;96042.38;4994745;28;20048;-70
2023/12/21 10:54:46;;;;;;;1.35;0.98;;;;;;;6.76;100.00;96037.44;4999265;28;20073;-73
2023/12/21 10:57:13;;;;;;;4.15;1.20;;;;;;;6.76;100.00;96037.44;4985867;28;20046;-73
2023/12/21 10:59:39;;;;;;;1.60;1.00;;;;;;;6.80;100.00;96024.69;4999803;28;20046;-72
2023/12/21 11:02:12;;;;;;;2.45;1.00;;;;;;;6.81;100.00;96016.16;5008960;28;20042;-72
2023/12/21 11:04:38;;;;;;;1.48;0.80;;;;;;;6.82;100.00;96011.50;4999025;28;20042;-72
2023/12/21 11:07:07;;;;;;;2.22;0.95;;;;;;;6.76;100.00;95991.19;4993662;28;20400;-74
2023/12/21 11:09:33;;;;;;;1.70;1.10;;;;;;;6.78;100.00;95978.78;4999043;28;20524;-72
2023/12/21 11:11:59;;;;;;;1.83;1.00;;;;;;;6.80;100.00;95983.84;4998184;28;20049;-72
2023/12/21 11:14:26;;;;;;;1.27;0.90;;;;;;;6.80;100.00;95987.34;4995436;28;20057;-72
2023/12/21 11:16:58;;;;;;;1.85;0.90;;;;;;;6.80;100.00;95975.69;5001726;28;20077;-73
2023/12/21 11:19:44;;;;;;;0.88;0.70;;;;;;;6.81;100.00;95991.66;4998170;28;20390;-73
2023/12/21 11:22:10;;;;;;;0.80;0.80;;;;;;;6.83;100.00;95983.94;5014103;28;20664;-72
2023/12/21 11:24:36;;;;;;;1.70;0.90;;;;;;;6.81;100.00;95974.56;5003833;28;20388;-73
2023/12/21 11:27:02;;;;;;;3.13;0.70;;;;;;;6.81;100.00;95944.63;5003259;28;20045;-72